TimeEDT,TemperatureF,Dew PointF,Humidity,Sea Level PressureIn,VisibilityMPH,Wind Direction,Wind SpeedMPH,Gust SpeedMPH,PrecipitationIn,Events,Conditions,WindDirDegrees,DateUTC
12:20 AM,59.0,59.0,100,30.09,10.0,Calm,Calm,-,N/A,,Overcast,0,2012-10-27 04:20:00
12:40 AM,59.0,59.0,100,30.08,10.0,Calm,Calm,-,N/A,,Overcast,0,2012-10-27 04:40:00
1:00 AM,59.0,57.2,94,30.08,10.0,NNE,3.5,-,N/A,,Overcast,20,2012-10-27 05:00:00
1:25 AM,59.0,57.2,94,30.07,10.0,NE,3.5,-,N/A,,Overcast,40,2012-10-27 05:25:00
2:05 AM,59.0,57.2,94,30.06,10.0,NNE,3.5,-,N/A,,Overcast,30,2012-10-27 06:05:00
2:25 AM,59.0,57.2,94,30.05,10.0,NNE,3.5,-,N/A,,Overcast,30,2012-10-27 06:25:00
2:50 AM,57.2,57.2,100,30.04,10.0,NNE,3.5,-,N/A,,Overcast,30,2012-10-27 06:50:00
3:10 AM,57.2,57.2,100,30.04,10.0,North,3.5,-,N/A,,Overcast,10,2012-10-27 07:10:00
3:30 AM,57.2,57.2,100,30.03,10.0,NNE,3.5,-,N/A,,Overcast,20,2012-10-27 07:30:00
3:50 AM,57.2,57.2,100,30.03,10.0,NNE,3.5,-,N/A,,Overcast,30,2012-10-27 07:50:00
4:15 AM,57.2,57.2,100,30.03,10.0,NNE,4.6,-,N/A,,Overcast,30,2012-10-27 08:15:00
4:35 AM,57.2,57.2,100,30.02,10.0,NE,4.6,-,N/A,,Overcast,40,2012-10-27 08:35:00
4:55 AM,57.2,57.2,100,30.01,10.0,NNE,4.6,-,N/A,,Overcast,20,2012-10-27 08:55:00
5:15 AM,55.4,55.4,100,30.01,10.0,North,3.5,-,N/A,,Overcast,10,2012-10-27 09:15:00
5:40 AM,57.2,55.4,94,30.02,10.0,NNE,3.5,-,N/A,,Overcast,20,2012-10-27 09:40:00
6:00 AM,57.2,55.4,94,30.02,10.0,NE,3.5,-,N/A,,Overcast,40,2012-10-27 10:00:00
6:20 AM,55.4,55.4,100,30.02,10.0,NNE,3.5,-,N/A,,Overcast,30,2012-10-27 10:20:00
6:40 AM,57.2,55.4,94,30.02,10.0,North,4.6,-,N/A,,Overcast,360,2012-10-27 10:40:00
6:50 AM,57.2,55.4,94,30.02,10.0,North,3.5,-,N/A,,Overcast,10,2012-10-27 10:50:00
6:52 AM,57.2,57.2,100,30.02,10.0,NNE,4.6,-,N/A,,Overcast,20,2012-10-27 10:52:00
7:52 AM,57.2,55.4,94,30.02,10.0,Variable,3.5,-,N/A,,Mostly Cloudy,0,2012-10-27 11:52:00
8:55 AM,60.8,55.4,82,30.03,10.0,Variable,4.6,-,N/A,,Mostly Cloudy,0,2012-10-27 12:55:00
9:53 AM,62.6,51.8,68,30.03,10.0,ENE,6.9,-,N/A,,Mostly Cloudy,60,2012-10-27 13:53:00
10:50 AM,66.2,50.0,56,30.03,10.0,East,8.1,-,N/A,,Mostly Cloudy,90,2012-10-27 14:50:00
11:50 AM,69.8,53.6,56,30.01,10.0,East,8.1,-,N/A,,Mostly Cloudy,90,2012-10-27 15:50:00
12:52 PM,69.8,55.4,60,29.98,10.0,East,6.9,-,N/A,,Overcast,100,2012-10-27 16:52:00
1:52 PM,68.0,55.4,64,29.95,10.0,ENE,5.8,-,N/A,,Overcast,60,2012-10-27 17:52:00
3:45 PM,66.2,53.6,64,29.93,10.0,ENE,6.9,-,N/A,,Overcast,70,2012-10-27 19:45:00
4:45 PM,66.2,55.4,68,29.93,10.0,NE,6.9,-,N/A,,Overcast,50,2012-10-27 20:45:00
5:45 PM,64.4,55.4,73,29.93,10.0,NE,6.9,-,N/A,,Clear,40,2012-10-27 21:45:00
6:46 PM,60.8,55.4,82,29.92,10.0,NE,3.5,-,N/A,,Scattered Clouds,50,2012-10-27 22:46:00
7:45 PM,60.8,55.4,82,29.92,10.0,North,6.9,-,N/A,,Clear,10,2012-10-27 23:45:00
9:15 PM,57.2,53.6,88,29.92,10.0,NNE,4.6,-,N/A,,Scattered Clouds,30,2012-10-28 01:15:00
9:35 PM,57.2,53.6,88,29.92,10.0,North,5.8,-,N/A,,Scattered Clouds,10,2012-10-28 01:35:00
9:55 PM,55.4,53.6,94,29.92,7.0,North,5.8,-,N/A,,Clear,360,2012-10-28 01:55:00
10:15 PM,55.4,53.6,94,29.91,7.0,North,5.8,-,N/A,,Clear,360,2012-10-28 02:15:00
10:40 PM,55.4,53.6,94,29.92,7.0,NNE,5.8,-,N/A,,Clear,30,2012-10-28 02:40:00
11:00 PM,55.4,53.6,94,29.92,7.0,NE,4.6,-,N/A,,Clear,40,2012-10-28 03:00:00
11:20 PM,55.4,53.6,94,29.92,7.0,North,6.9,-,N/A,,Clear,10,2012-10-28 03:20:00
11:45 PM,55.4,53.6,94,29.91,7.0,NNE,5.8,-,N/A,,Clear,20,2012-10-28 03:45:00